createdAt,value
2023-01-10T00:02:07.136Z,6.84
2023-01-10T00:04:36.948Z,6.82
2023-01-10T00:07:09.591Z,6.79
2023-01-10T00:09:39.392Z,6.77
2023-01-10T00:12:22.008Z,6.74
2023-01-10T00:14:52.789Z,6.69
2023-01-10T00:17:22.572Z,6.64
2023-01-10T00:19:52.390Z,6.62
2023-01-10T00:22:26.295Z,6.61
2023-01-10T00:24:56.077Z,6.58
2023-01-10T00:27:26.229Z,6.52
2023-01-10T00:29:58.258Z,6.53
2023-01-10T00:32:28.088Z,6.51
2023-01-10T00:34:57.910Z,6.54
2023-01-10T00:37:30.345Z,6.55
2023-01-10T00:40:00.126Z,6.58
2023-01-10T00:42:42.320Z,6.61
2023-01-10T00:45:12.748Z,6.66
2023-01-10T00:47:42.577Z,6.70
2023-01-10T00:50:14.547Z,6.74
2023-01-10T00:52:47.258Z,6.75
2023-01-10T00:55:17.073Z,6.76
2023-01-10T00:57:46.824Z,6.74
2023-01-10T01:00:17.191Z,6.75
2023-01-10T01:02:47.138Z,6.77
2023-01-10T01:05:16.948Z,6.79
2023-01-10T01:07:50.963Z,6.82
2023-01-10T01:10:30.737Z,6.81
2023-01-10T01:13:02.148Z,6.80
2023-01-10T01:15:32.035Z,6.79
2023-01-10T01:18:01.951Z,6.72
2023-01-10T01:20:32.457Z,6.67
2023-01-10T01:23:04.944Z,6.66
2023-01-10T01:25:35.137Z,6.64
2023-01-10T01:28:04.992Z,6.63
2023-01-10T01:30:35.005Z,6.64
2023-01-10T01:33:04.892Z,6.67
2023-01-10T01:35:35.087Z,6.65
2023-01-10T01:38:07.645Z,6.65
2023-01-10T01:40:39.092Z,6.65
2023-01-10T01:43:09.188Z,6.64
2023-01-10T01:45:41.395Z,6.67
2023-01-10T01:48:25.755Z,6.70
2023-01-10T01:51:05.525Z,6.70
2023-01-10T01:53:42.875Z,6.70
2023-01-10T01:56:17.795Z,6.70
2023-01-10T01:58:52.118Z,6.70
2023-01-10T02:01:22.710Z,6.71
2023-01-10T02:03:57.228Z,6.74
2023-01-10T02:06:28.494Z,6.75
2023-01-10T02:09:10.175Z,6.77
2023-01-10T02:11:39.890Z,6.79
2023-01-10T02:14:11.330Z,6.81
2023-01-10T02:16:41.062Z,6.85
2023-01-10T02:19:20.536Z,6.87
2023-01-10T02:22:14.684Z,6.88
2023-01-10T02:25:21.880Z,6.87
2023-01-10T02:28:19.617Z,6.89
2023-01-10T02:31:16.719Z,6.89
2023-01-10T02:33:52.315Z,6.87
2023-01-10T02:36:38.894Z,6.88
2023-01-10T02:39:14.428Z,6.89
2023-01-10T02:41:51.340Z,6.90
2023-01-10T02:44:24.890Z,6.89
2023-01-10T02:46:54.795Z,6.90
2023-01-10T02:49:27.244Z,6.92
2023-01-10T02:51:57.447Z,6.92
2023-01-10T02:54:30.901Z,6.96
2023-01-10T02:57:17.087Z,6.98
2023-01-10T03:00:11.435Z,7.00
2023-01-10T03:03:11.856Z,7.04
2023-01-10T03:05:56.337Z,7.02
2023-01-10T03:08:34.786Z,7.06
2023-01-10T03:11:06.986Z,7.04
2023-01-10T03:13:42.161Z,7.08
2023-01-10T03:16:17.336Z,7.08
2023-01-10T03:18:51.899Z,7.10
2023-01-10T03:21:26.530Z,7.10
2023-01-10T03:23:59.757Z,7.09
2023-01-10T03:26:38.284Z,7.10
2023-01-10T03:29:11.457Z,7.11
2023-01-10T03:31:45.205Z,7.11
2023-01-10T03:34:15.861Z,7.12
2023-01-10T03:36:55.846Z,7.11
2023-01-10T03:39:34.697Z,7.09
2023-01-10T03:42:11.615Z,7.06
2023-01-10T03:44:46.462Z,7.07
2023-01-10T03:47:25.632Z,7.10
2023-01-10T03:49:59.702Z,7.11
2023-01-10T03:52:33.534Z,7.12
2023-01-10T03:55:03.673Z,7.12
2023-01-10T03:57:33.504Z,7.14
2023-01-10T04:00:04.089Z,7.15
2023-01-10T04:02:35.241Z,7.17
2023-01-10T04:05:05.103Z,7.18
2023-01-10T04:07:37.702Z,7.18
2023-01-10T04:10:08.821Z,7.17
2023-01-10T04:12:38.599Z,7.17
2023-01-10T04:15:09.722Z,7.19
2023-01-10T04:17:39.620Z,7.19
2023-01-10T04:20:10.220Z,7.21
2023-01-10T04:22:42.694Z,7.23
2023-01-10T04:25:13.039Z,7.24
2023-01-10T04:27:42.875Z,7.23
2023-01-10T04:30:13.891Z,7.25
2023-01-10T04:32:43.803Z,7.26
2023-01-10T04:35:13.874Z,7.27
2023-01-10T04:37:46.588Z,7.28
2023-01-10T04:40:19.644Z,7.27
2023-01-10T04:42:49.567Z,7.28
2023-01-10T04:45:21.964Z,7.28
2023-01-10T04:47:56.510Z,7.27
2023-01-10T04:50:26.624Z,7.28
2023-01-10T04:52:59.014Z,7.28
2023-01-10T04:55:29.389Z,7.29
2023-01-10T04:57:59.443Z,7.31
2023-01-10T05:00:30.625Z,7.31
2023-01-10T05:03:00.689Z,7.31
2023-01-10T05:05:31.242Z,7.31
2023-01-10T05:08:03.953Z,7.30
2023-01-10T05:10:33.654Z,7.29
2023-01-10T05:13:03.424Z,7.29
2023-01-10T05:15:33.190Z,7.28
2023-01-10T05:18:03.584Z,7.27
2023-01-10T05:20:33.336Z,7.27
2023-01-10T05:23:05.673Z,7.27
2023-01-10T05:25:35.436Z,7.29
2023-01-10T05:28:05.258Z,7.32
2023-01-10T05:30:35.108Z,7.33
2023-01-10T05:33:07.275Z,7.32
2023-01-10T05:35:37.122Z,7.32
2023-01-10T05:38:09.648Z,7.32
2023-01-10T05:40:39.395Z,7.32
2023-01-10T05:43:09.274Z,7.32
2023-01-10T05:45:39.057Z,7.32
2023-01-10T05:48:09.418Z,7.32
2023-01-10T05:50:39.191Z,7.32
2023-01-10T05:53:11.688Z,7.33
2023-01-10T05:55:41.942Z,7.36
2023-01-10T05:58:13.064Z,7.36
2023-01-10T06:00:42.799Z,7.35
2023-01-10T06:03:12.599Z,7.35
2023-01-10T06:05:42.436Z,7.34
2023-01-10T06:08:15.012Z,7.34
2023-01-10T06:10:45.368Z,7.32
2023-01-10T06:13:15.330Z,7.33
2023-01-10T06:15:46.516Z,7.32
2023-01-10T06:18:16.959Z,7.30
2023-01-10T06:20:47.655Z,7.30
2023-01-10T06:23:20.311Z,7.30
2023-01-10T06:25:50.155Z,7.28
2023-01-10T06:28:19.927Z,7.26
2023-01-10T06:30:49.816Z,7.25
2023-01-10T06:33:19.753Z,7.23
2023-01-10T06:35:49.682Z,7.23
2023-01-10T06:38:22.074Z,7.18
2023-01-10T06:40:51.894Z,7.14
2023-01-10T06:43:21.779Z,7.12
2023-01-10T06:45:51.559Z,7.06
2023-01-10T06:48:22.075Z,7.04
2023-01-10T06:50:52.982Z,7.02
2023-01-10T06:53:25.395Z,7.01
2023-01-10T06:55:57.641Z,6.97
2023-01-10T06:58:27.669Z,6.97
2023-01-10T07:00:57.780Z,6.97
2023-01-10T07:03:27.605Z,6.97
2023-01-10T07:05:57.563Z,6.96
2023-01-10T07:08:29.925Z,6.93
2023-01-10T07:11:02.457Z,6.89
2023-01-10T07:13:32.276Z,6.85
2023-01-10T07:16:05.975Z,6.82
2023-01-10T07:18:37.465Z,6.78
2023-01-10T07:21:07.854Z,6.75
2023-01-10T07:23:41.115Z,6.73
2023-01-10T07:26:12.391Z,6.69
2023-01-10T07:28:42.118Z,6.69
2023-01-10T07:31:15.207Z,6.70
2023-01-10T07:33:45.030Z,6.71
2023-01-10T07:36:14.993Z,6.73
2023-01-10T07:38:47.423Z,6.77
2023-01-10T07:41:17.158Z,6.77
2023-01-10T07:43:46.889Z,6.79
2023-01-10T07:46:16.647Z,6.81
2023-01-10T07:48:47.111Z,6.82
2023-01-10T07:51:16.930Z,6.82
2023-01-10T07:53:49.369Z,6.86
2023-01-10T07:56:19.113Z,6.87
2023-01-10T07:58:50.319Z,6.90
2023-01-10T08:01:20.965Z,6.90
2023-01-10T08:03:50.739Z,6.91
2023-01-10T08:06:20.797Z,6.93
2023-01-10T08:08:53.284Z,6.94
2023-01-10T08:11:23.037Z,6.94
2023-01-10T08:13:52.822Z,6.98
2023-01-10T08:16:23.089Z,7.00
2023-01-10T08:18:52.848Z,7.02
2023-01-10T08:21:22.645Z,7.03
2023-01-10T08:23:55.037Z,7.06
2023-01-10T08:26:24.756Z,7.07
2023-01-10T08:28:54.485Z,7.11
2023-01-10T08:31:25.028Z,7.14
2023-01-10T08:33:54.900Z,7.15
2023-01-10T08:36:25.402Z,7.19
2023-01-10T08:38:58.134Z,7.22
2023-01-10T08:41:27.877Z,7.30
2023-01-10T08:43:57.602Z,7.37
2023-01-10T08:46:27.373Z,7.46
2023-01-10T08:48:57.331Z,7.54
2023-01-10T08:51:27.254Z,7.64
2023-01-10T08:53:59.737Z,7.77
2023-01-10T08:56:30.596Z,7.84
2023-01-10T08:59:00.394Z,7.90
2023-01-10T09:01:30.343Z,7.94
2023-01-10T09:04:01.217Z,7.99
2023-01-10T09:06:31.075Z,8.04
2023-01-10T09:09:03.571Z,8.04
2023-01-10T09:11:33.444Z,8.03
2023-01-10T09:14:03.305Z,7.99
2023-01-10T09:16:33.159Z,7.95
2023-01-10T09:19:04.376Z,7.93
2023-01-10T09:21:34.253Z,7.90
2023-01-10T09:24:07.562Z,7.90
2023-01-10T09:26:37.376Z,7.93
2023-01-10T09:29:07.245Z,7.96
2023-01-10T09:31:37.175Z,7.98
2023-01-10T09:34:07.510Z,7.97
2023-01-10T09:36:37.407Z,7.96
2023-01-10T09:39:09.812Z,7.95
2023-01-10T09:41:59.061Z,7.94
2023-01-10T09:44:40.450Z,7.94
2023-01-10T09:47:23.179Z,7.96
2023-01-10T09:50:04.459Z,7.97
2023-01-10T09:52:39.029Z,7.97
2023-01-10T09:55:22.202Z,8.01
2023-01-10T09:57:53.731Z,8.01
2023-01-10T10:00:27.777Z,7.99
2023-01-10T10:02:58.081Z,7.99
2023-01-10T10:05:29.943Z,7.97
2023-01-10T10:08:02.694Z,7.93
2023-01-10T10:10:42.492Z,7.94
2023-01-10T10:13:27.593Z,7.92
2023-01-10T10:16:07.753Z,7.93
2023-01-10T10:18:47.311Z,7.95
2023-01-10T10:21:26.050Z,7.97
2023-01-10T10:24:24.952Z,8.01
2023-01-10T10:27:05.653Z,8.04
2023-01-10T10:30:02.170Z,8.07
2023-01-10T10:32:43.301Z,8.11
2023-01-10T10:35:21.900Z,8.15
2023-01-10T10:37:54.789Z,8.17
2023-01-10T10:40:28.852Z,8.18
2023-01-10T10:43:13.524Z,8.19
2023-01-10T10:45:49.075Z,8.20
2023-01-10T10:48:25.082Z,8.22
2023-01-10T10:51:03.183Z,8.26
2023-01-10T10:53:35.537Z,8.28
2023-01-10T10:56:07.576Z,8.28
2023-01-10T10:58:42.241Z,8.27
2023-01-10T11:01:15.915Z,8.28
2023-01-10T11:03:51.896Z,8.29
2023-01-10T11:06:23.000Z,8.31
2023-01-10T11:08:56.566Z,8.32
2023-01-10T11:11:30.556Z,8.33
2023-01-10T11:14:04.826Z,8.34
2023-01-10T11:16:36.852Z,8.33
2023-01-10T11:19:18.411Z,8.35
2023-01-10T11:21:58.611Z,8.35
2023-01-10T11:24:34.060Z,8.35
2023-01-10T11:27:08.356Z,8.37
2023-01-10T11:29:48.207Z,8.37
2023-01-10T11:32:21.334Z,8.36
2023-01-10T11:34:58.489Z,8.36
2023-01-10T11:37:32.627Z,8.36
2023-01-10T11:40:21.078Z,8.38
2023-01-10T11:42:51.839Z,8.37
2023-01-10T11:45:31.545Z,8.40
2023-01-10T11:48:12.636Z,8.40
2023-01-10T11:50:46.802Z,8.42
2023-01-10T11:53:38.025Z,8.43
2023-01-10T11:56:09.684Z,8.42
2023-01-10T11:58:40.931Z,8.42
2023-01-10T12:01:33.542Z,8.43
2023-01-10T12:04:04.032Z,8.39
2023-01-10T12:06:35.190Z,8.38
2023-01-10T12:09:04.967Z,8.36
2023-01-10T12:11:36.270Z,8.36
2023-01-10T12:14:21.105Z,8.36
2023-01-10T12:17:02.288Z,8.37
2023-01-10T12:19:32.456Z,8.36
2023-01-10T12:22:06.351Z,8.37
2023-01-10T12:24:41.463Z,8.35
2023-01-10T12:27:16.221Z,8.35
2023-01-10T12:29:49.276Z,8.33
2023-01-10T12:32:28.148Z,8.33
2023-01-10T12:35:05.118Z,8.29
2023-01-10T12:37:43.100Z,8.26
2023-01-10T12:40:18.864Z,8.26
2023-01-10T12:43:07.982Z,8.22
2023-01-10T12:45:44.041Z,8.22
2023-01-10T12:48:25.426Z,8.20
2023-01-10T12:51:00.122Z,8.17
2023-01-10T12:53:34.785Z,8.16
2023-01-10T12:56:08.891Z,8.14
2023-01-10T12:58:46.223Z,8.14
2023-01-10T13:01:19.532Z,8.12
2023-01-10T13:03:57.912Z,8.10
2023-01-10T13:06:33.515Z,8.10
2023-01-10T13:09:08.551Z,8.10
2023-01-10T13:11:47.875Z,8.08
2023-01-10T13:14:22.571Z,8.08
2023-01-10T13:16:57.487Z,8.06
2023-01-10T13:19:31.191Z,8.05
2023-01-10T13:22:22.735Z,8.03
2023-01-10T13:25:00.390Z,8.00
2023-01-10T13:27:34.298Z,7.97
2023-01-10T13:30:05.588Z,7.96
2023-01-10T13:32:38.604Z,7.95
2023-01-10T13:35:20.001Z,7.95
2023-01-10T13:37:57.027Z,7.95
2023-01-10T13:40:31.924Z,7.94
2023-01-10T13:43:34.513Z,7.95
2023-01-10T13:46:35.197Z,7.94
2023-01-10T13:49:42.621Z,7.94
2023-01-10T13:52:35.156Z,7.91
2023-01-10T13:55:20.874Z,7.87
2023-01-10T13:57:56.095Z,7.88
2023-01-10T14:00:41.829Z,7.86
2023-01-10T14:03:11.884Z,7.85
2023-01-10T14:05:50.386Z,7.85
2023-01-10T14:08:25.047Z,7.86
2023-01-10T14:11:08.435Z,7.86
2023-01-10T14:13:38.924Z,7.85
2023-01-10T14:16:09.242Z,7.84
2023-01-10T14:18:43.027Z,7.84
2023-01-10T14:21:26.810Z,7.82
2023-01-10T14:24:01.014Z,7.83
2023-01-10T14:26:35.608Z,7.82
2023-01-10T14:29:13.959Z,7.82
2023-01-10T14:31:48.195Z,7.79
2023-01-10T14:34:24.513Z,7.75
2023-01-10T14:37:01.710Z,7.75
2023-01-10T14:39:34.769Z,7.75
2023-01-10T14:42:08.167Z,7.77
2023-01-10T14:44:46.118Z,7.76
2023-01-10T14:47:31.395Z,7.77
2023-01-10T14:50:02.764Z,7.76
2023-01-10T14:52:33.743Z,7.74
2023-01-10T14:55:16.758Z,7.75
2023-01-10T14:57:56.229Z,7.72
2023-01-10T15:00:31.093Z,7.70
2023-01-10T15:03:04.195Z,7.69
2023-01-10T15:05:38.286Z,7.69
2023-01-10T15:08:25.778Z,7.70
2023-01-10T15:11:04.213Z,7.69
2023-01-10T15:13:37.172Z,7.68
2023-01-10T15:16:08.272Z,7.67
2023-01-10T15:18:43.530Z,7.67
2023-01-10T15:21:15.287Z,7.67
2023-01-10T15:23:46.581Z,7.67
2023-01-10T15:26:22.560Z,7.68
2023-01-10T15:29:12.437Z,7.70
2023-01-10T15:31:43.302Z,7.68
2023-01-10T15:34:18.626Z,7.69
2023-01-10T15:36:52.742Z,7.66
2023-01-10T15:39:28.297Z,7.66
2023-01-10T15:42:04.222Z,7.67
2023-01-10T15:44:45.390Z,7.68
2023-01-10T15:47:52.915Z,7.67
2023-01-10T15:50:27.062Z,7.65
2023-01-10T15:52:59.035Z,7.64
2023-01-10T15:55:40.634Z,7.64
2023-01-10T15:58:21.467Z,7.64
2023-01-10T16:00:54.464Z,7.63
2023-01-10T16:03:29.601Z,7.64
2023-01-10T16:06:02.314Z,7.62
2023-01-10T16:08:37.627Z,7.62
2023-01-10T16:11:10.929Z,7.62
2023-01-10T16:13:41.695Z,7.61
2023-01-10T16:16:20.020Z,7.60
2023-01-10T16:18:49.823Z,7.58
2023-01-10T16:21:21.976Z,7.58
2023-01-10T16:23:51.841Z,7.57
2023-01-10T16:26:21.572Z,7.56
2023-01-10T16:28:54.074Z,7.54
2023-01-10T16:31:23.835Z,7.54
2023-01-10T16:33:53.620Z,7.55
2023-01-10T16:36:23.816Z,7.54
2023-01-10T16:38:53.537Z,7.54
2023-01-10T16:41:35.664Z,7.52
2023-01-10T16:44:08.021Z,7.49
2023-01-10T16:46:37.895Z,7.47
2023-01-10T16:49:07.887Z,7.47
2023-01-10T16:51:41.818Z,7.47
2023-01-10T16:54:17.718Z,7.47
2023-01-10T16:56:47.687Z,7.46
2023-01-10T16:59:20.792Z,7.45
2023-01-10T17:01:54.504Z,7.46
2023-01-10T17:04:27.427Z,7.45
2023-01-10T17:06:57.316Z,7.45
2023-01-10T17:09:28.990Z,7.44
2023-01-10T17:12:02.505Z,7.43
2023-01-10T17:14:37.096Z,7.43
2023-01-10T17:17:07.867Z,7.43
2023-01-10T17:19:38.695Z,7.42
2023-01-10T17:22:08.447Z,7.39
2023-01-10T17:24:38.166Z,7.39
2023-01-10T17:27:07.894Z,7.40
2023-01-10T17:29:42.119Z,7.37
2023-01-10T17:32:12.936Z,7.36
2023-01-10T17:34:42.806Z,7.37
2023-01-10T17:37:12.591Z,7.37
2023-01-10T17:39:42.328Z,7.36
2023-01-10T17:42:12.336Z,7.37
2023-01-10T17:44:44.820Z,7.40
2023-01-10T17:47:14.604Z,7.40
2023-01-10T17:49:44.892Z,7.40
2023-01-10T17:52:14.703Z,7.41
2023-01-10T17:54:44.741Z,7.40
2023-01-10T17:57:15.075Z,7.40
2023-01-10T17:59:47.448Z,7.40
2023-01-10T18:02:20.410Z,7.40
2023-01-10T18:04:50.312Z,7.39
2023-01-10T18:07:20.138Z,7.40
2023-01-10T18:09:50.341Z,7.37
2023-01-10T18:12:20.255Z,7.35
2023-01-10T18:14:53.463Z,7.35
2023-01-10T18:17:24.660Z,7.33
2023-01-10T18:19:54.704Z,7.32
2023-01-10T18:22:37.023Z,7.32
2023-01-10T18:25:07.962Z,7.32
2023-01-10T18:27:37.886Z,7.32
2023-01-10T18:30:12.109Z,7.33
2023-01-10T18:32:41.971Z,7.36
2023-01-10T18:35:12.485Z,7.36
2023-01-10T18:37:42.351Z,7.35
2023-01-10T18:40:13.627Z,7.36
2023-01-10T18:42:43.945Z,7.34
2023-01-10T18:45:17.138Z,7.35
2023-01-10T18:47:47.073Z,7.33
2023-01-10T18:50:17.145Z,7.33
2023-01-10T18:52:47.322Z,7.34
2023-01-10T18:55:17.429Z,7.33
2023-01-10T18:57:48.375Z,7.35
2023-01-10T19:00:22.256Z,7.32
2023-01-10T19:02:54.267Z,7.34
2023-01-10T19:05:24.378Z,7.35
2023-01-10T19:07:58.339Z,7.35
2023-01-10T19:10:29.073Z,7.35
2023-01-10T19:13:01.149Z,7.35
2023-01-10T19:15:33.812Z,7.34
2023-01-10T19:18:03.855Z,7.33
2023-01-10T19:20:33.881Z,7.31
2023-01-10T19:23:07.256Z,7.30
2023-01-10T19:25:37.390Z,7.29
2023-01-10T19:28:08.041Z,7.30
2023-01-10T19:30:41.531Z,7.32
2023-01-10T19:33:11.587Z,7.33
2023-01-10T19:35:43.246Z,7.35
2023-01-10T19:38:13.088Z,7.36
2023-01-10T19:40:43.745Z,7.37
2023-01-10T19:43:13.561Z,7.39
2023-01-10T19:45:46.407Z,7.39
2023-01-10T19:48:16.173Z,7.40
2023-01-10T19:50:46.615Z,7.42
2023-01-10T19:53:16.434Z,7.47
2023-01-10T19:55:46.203Z,7.50
2023-01-10T19:58:15.905Z,7.53
2023-01-10T20:00:48.407Z,7.55
2023-01-10T20:03:18.110Z,7.56
2023-01-10T20:05:47.897Z,7.60
2023-01-10T20:08:18.005Z,7.62
2023-01-10T20:10:47.968Z,7.65
2023-01-10T20:13:17.733Z,7.68
2023-01-10T20:15:50.836Z,7.70
2023-01-10T20:18:20.570Z,7.71
2023-01-10T20:20:50.317Z,7.72
2023-01-10T20:23:21.185Z,7.75
2023-01-10T20:25:58.994Z,7.77
2023-01-10T20:28:29.030Z,7.79
2023-01-10T20:31:01.456Z,7.84
2023-01-10T20:33:34.185Z,7.85
2023-01-10T20:36:06.029Z,7.88
2023-01-10T20:38:37.306Z,7.90
2023-01-10T20:41:09.010Z,7.93
2023-01-10T20:43:39.450Z,7.96
2023-01-10T20:46:14.169Z,8.01
2023-01-10T20:48:44.667Z,8.05
2023-01-10T20:51:17.329Z,8.08
2023-01-10T20:53:47.389Z,8.13
2023-01-10T20:56:20.001Z,8.15
2023-01-10T20:58:50.271Z,8.18
2023-01-10T21:01:33.517Z,8.23
2023-01-10T21:04:04.896Z,8.23
2023-01-10T21:06:35.705Z,8.26
2023-01-10T21:09:06.838Z,8.28
2023-01-10T21:11:52.097Z,8.29
2023-01-10T21:14:26.772Z,8.33
2023-01-10T21:16:59.109Z,8.37
2023-01-10T21:19:28.827Z,8.40
2023-01-10T21:21:58.558Z,8.43
2023-01-10T21:24:28.606Z,8.44
2023-01-10T21:26:58.311Z,8.47
2023-01-10T21:29:28.131Z,8.49
2023-01-10T21:32:00.483Z,8.51
2023-01-10T21:34:30.826Z,8.50
2023-01-10T21:37:00.728Z,8.53
2023-01-10T21:39:30.455Z,8.54
2023-01-10T21:42:12.571Z,8.57
2023-01-10T21:44:42.275Z,8.59
2023-01-10T21:47:14.625Z,8.60
2023-01-10T21:49:44.360Z,8.62
2023-01-10T21:52:14.066Z,8.64
2023-01-10T21:54:43.777Z,8.68
2023-01-10T21:57:14.024Z,8.70
2023-01-10T21:59:43.743Z,8.72
2023-01-10T22:02:17.732Z,8.74
2023-01-10T22:04:51.688Z,8.77
2023-01-10T22:07:22.940Z,8.79
2023-01-10T22:09:52.990Z,8.81
2023-01-10T22:12:24.010Z,8.82
2023-01-10T22:14:54.060Z,8.84
2023-01-10T22:17:26.824Z,8.87
2023-01-10T22:19:56.611Z,8.91
2023-01-10T22:22:26.333Z,8.92
2023-01-10T22:24:56.079Z,8.95
2023-01-10T22:27:25.891Z,8.97
2023-01-10T22:29:55.622Z,8.99
2023-01-10T22:32:28.007Z,9.02
2023-01-10T22:34:57.714Z,9.03
2023-01-10T22:37:27.444Z,9.07
2023-01-10T22:39:57.274Z,9.08
2023-01-10T22:42:27.322Z,9.09
2023-01-10T22:44:57.067Z,9.12
2023-01-10T22:47:29.387Z,9.14
2023-01-10T22:49:59.097Z,9.19
2023-01-10T22:52:28.860Z,9.21
2023-01-10T22:54:59.101Z,9.24
2023-01-10T22:57:32.877Z,9.26
2023-01-10T23:00:02.824Z,9.27
2023-01-10T23:02:35.262Z,9.28
2023-01-10T23:05:05.092Z,9.30
2023-01-10T23:07:34.879Z,9.31
2023-01-10T23:10:04.668Z,9.32
2023-01-10T23:12:34.430Z,9.35
2023-01-10T23:15:04.203Z,9.38
2023-01-10T23:17:36.542Z,9.39
2023-01-10T23:20:07.168Z,9.40
2023-01-10T23:22:37.088Z,9.41
2023-01-10T23:25:07.570Z,9.45
2023-01-10T23:27:38.565Z,9.46
2023-01-10T23:30:09.833Z,9.48
2023-01-10T23:32:42.197Z,9.49
2023-01-10T23:35:12.590Z,9.51
2023-01-10T23:37:42.266Z,9.52
2023-01-10T23:40:13.757Z,9.54
2023-01-10T23:42:43.480Z,9.54
2023-01-10T23:45:13.795Z,9.58
2023-01-10T23:47:46.109Z,9.60
2023-01-10T23:50:15.800Z,9.61
2023-01-10T23:52:45.504Z,9.62
2023-01-10T23:55:15.409Z,9.64
2023-01-10T23:57:45.131Z,9.67
